createdAt,value
2018-04-14T00:01:18.515Z,64.77
2018-04-14T00:03:46.883Z,65.00
2018-04-14T00:06:15.272Z,64.95
2018-04-14T00:08:43.939Z,65.04
2018-04-14T00:11:12.340Z,65.24
2018-04-14T00:13:41.662Z,65.39
2018-04-14T00:16:10.178Z,65.40
2018-04-14T00:18:38.863Z,65.59
2018-04-14T00:21:07.376Z,65.65
2018-04-14T00:23:35.840Z,65.64
2018-04-14T00:26:04.464Z,65.55
2018-04-14T00:28:32.901Z,65.58
2018-04-14T00:31:01.823Z,65.61
2018-04-14T00:33:30.529Z,65.63
2018-04-14T00:35:59.982Z,65.60
2018-04-14T00:38:28.406Z,65.87
2018-04-14T00:40:57.076Z,65.70
2018-04-14T00:43:25.475Z,65.77
2018-04-14T00:45:54.165Z,65.79
2018-04-14T00:48:23.236Z,65.83
2018-04-14T00:50:52.587Z,66.00
2018-04-14T00:53:34.417Z,66.07
2018-04-14T00:56:02.907Z,66.10
2018-04-14T00:58:31.279Z,66.16
2018-04-14T01:01:01.402Z,66.22
2018-04-14T01:03:29.951Z,66.40
2018-04-14T01:05:59.334Z,66.64
2018-04-14T01:08:27.734Z,66.55
2018-04-14T01:10:57.003Z,66.51
2018-04-14T01:13:26.112Z,66.51
2018-04-14T01:15:54.607Z,66.66
2018-04-14T01:18:23.312Z,66.93
2018-04-14T01:20:52.801Z,66.96
2018-04-14T01:23:21.333Z,67.12
2018-04-14T01:25:49.697Z,67.20
2018-04-14T01:28:18.148Z,67.40
2018-04-14T01:30:46.515Z,67.60
2018-04-14T01:33:16.248Z,67.76
2018-04-14T01:35:45.104Z,67.73
2018-04-14T01:38:14.906Z,67.80
2018-04-14T01:40:44.194Z,67.71
2018-04-14T01:43:12.915Z,67.69
2018-04-14T01:45:42.066Z,67.71
2018-04-14T01:48:10.795Z,67.79
2018-04-14T01:50:40.406Z,67.76
2018-04-14T01:53:09.028Z,67.74
2018-04-14T01:55:38.060Z,67.70
2018-04-14T01:58:07.437Z,67.85
2018-04-14T02:00:35.989Z,67.83
2018-04-14T02:03:04.842Z,67.92
2018-04-14T02:05:34.372Z,67.87
2018-04-14T02:08:03.160Z,68.05
2018-04-14T02:10:32.088Z,68.16
2018-04-14T02:13:00.624Z,68.21
2018-04-14T02:15:29.282Z,68.34
2018-04-14T02:17:58.906Z,68.41
2018-04-14T02:20:28.219Z,68.51
2018-04-14T02:22:57.499Z,68.50
2018-04-14T02:25:26.736Z,68.55
2018-04-14T02:27:55.395Z,68.71
2018-04-14T02:30:25.271Z,68.79
2018-04-14T02:32:54.233Z,68.88
2018-04-14T02:35:23.186Z,69.00
2018-04-14T02:37:51.894Z,69.10
2018-04-14T02:40:20.531Z,69.26
2018-04-14T02:42:48.937Z,69.36
2018-04-14T02:45:18.508Z,69.46
2018-04-14T02:47:47.203Z,69.49
2018-04-14T02:50:17.691Z,69.64
2018-04-14T02:52:47.129Z,69.77
2018-04-14T02:55:15.715Z,69.81
2018-04-14T02:57:44.374Z,69.87
2018-04-14T03:00:12.736Z,69.98
2018-04-14T03:02:42.356Z,70.02
2018-04-14T03:05:11.393Z,70.10
2018-04-14T03:07:40.835Z,70.28
2018-04-14T03:10:09.204Z,70.40
2018-04-14T03:12:38.588Z,70.29
2018-04-14T03:15:07.261Z,70.52
2018-04-14T03:17:36.973Z,70.51
2018-04-14T03:20:05.794Z,70.38
2018-04-14T03:22:34.243Z,70.39
2018-04-14T03:25:03.212Z,70.32
2018-04-14T03:27:31.576Z,70.34
2018-04-14T03:30:00.689Z,70.41
2018-04-14T03:32:29.149Z,70.57
2018-04-14T03:34:57.887Z,70.57
2018-04-14T03:37:26.992Z,70.43
2018-04-14T03:39:55.596Z,70.32
2018-04-14T03:42:23.957Z,70.29
2018-04-14T03:44:52.406Z,70.32
2018-04-14T03:47:20.831Z,70.41
2018-04-14T03:49:49.953Z,70.46
2018-04-14T03:52:18.424Z,70.56
2018-04-14T03:54:47.508Z,70.58
2018-04-14T03:57:16.526Z,70.61
2018-04-14T03:59:45.133Z,70.67
2018-04-14T04:02:13.855Z,70.75
2018-04-14T04:04:42.792Z,70.74
2018-04-14T04:07:11.409Z,70.90
2018-04-14T04:09:40.751Z,71.03
2018-04-14T04:12:09.523Z,71.08
2018-04-14T04:14:37.936Z,71.24
2018-04-14T04:17:07.135Z,71.34
2018-04-14T04:19:48.292Z,71.40
2018-04-14T04:22:29.557Z,71.36
2018-04-14T04:25:10.657Z,71.27
2018-04-14T04:27:39.244Z,71.40
2018-04-14T04:30:08.522Z,71.37
2018-04-14T04:32:38.501Z,71.42
2018-04-14T04:35:07.807Z,71.51
2018-04-14T04:37:36.968Z,71.62
2018-04-14T04:40:05.340Z,71.71
2018-04-14T04:42:33.730Z,72.09
2018-04-14T04:45:02.431Z,72.16
2018-04-14T04:47:30.796Z,72.27
2018-04-14T04:49:59.237Z,72.51
2018-04-14T04:52:28.064Z,72.65
2018-04-14T04:55:00.428Z,72.88
2018-04-14T04:57:29.126Z,72.95
2018-04-14T04:59:57.560Z,72.72
2018-04-14T05:02:27.031Z,72.43
2018-04-14T05:04:55.769Z,72.49
2018-04-14T05:07:24.196Z,72.55
2018-04-14T05:09:52.971Z,72.66
2018-04-14T05:12:21.417Z,72.36
2018-04-14T05:14:49.799Z,72.34
2018-04-14T05:17:18.148Z,72.34
2018-04-14T05:19:46.547Z,72.45
2018-04-14T05:22:16.024Z,72.91
2018-04-14T05:24:44.716Z,72.72
2018-04-14T05:27:13.156Z,72.75
2018-04-14T05:29:42.217Z,72.69
2018-04-14T05:32:10.588Z,72.65
2018-04-14T05:34:40.020Z,72.68
2018-04-14T05:37:08.994Z,72.52
2018-04-14T05:39:37.481Z,72.54
2018-04-14T05:42:06.664Z,72.51
2018-04-14T05:44:36.254Z,72.48
2018-04-14T05:47:04.620Z,72.24
2018-04-14T05:49:33.856Z,72.18
2018-04-14T05:52:02.589Z,72.12
2018-04-14T05:54:31.031Z,72.09
2018-04-14T05:56:59.397Z,72.04
2018-04-14T05:59:28.388Z,71.97
2018-04-14T06:01:56.834Z,71.85
2018-04-14T06:04:26.186Z,71.78
2018-04-14T06:06:55.036Z,71.78
2018-04-14T06:09:23.403Z,71.77
2018-04-14T06:11:51.932Z,71.64
2018-04-14T06:14:21.418Z,71.49
2018-04-14T06:16:50.857Z,71.30
2018-04-14T06:19:19.668Z,71.07
2018-04-14T06:21:48.352Z,70.87
2018-04-14T06:24:17.045Z,70.69
2018-04-14T06:26:45.709Z,70.48
2018-04-14T06:29:14.264Z,70.28
2018-04-14T06:31:43.663Z,70.04
2018-04-14T06:34:12.593Z,69.89
2018-04-14T06:36:41.884Z,69.63
2018-04-14T06:39:10.649Z,69.37
2018-04-14T06:41:39.637Z,69.12
2018-04-14T06:44:08.472Z,68.77
2018-04-14T06:46:36.935Z,68.57
2018-04-14T06:49:06.169Z,68.40
2018-04-14T06:51:34.873Z,67.98
2018-04-14T06:54:03.636Z,67.74
2018-04-14T06:56:32.755Z,67.35
2018-04-14T06:59:01.579Z,66.86
2018-04-14T07:01:30.017Z,66.52
2018-04-14T07:03:58.784Z,66.08
2018-04-14T07:06:27.225Z,65.75
2018-04-14T07:08:55.923Z,65.43
2018-04-14T07:11:24.433Z,65.05
2018-04-14T07:13:52.951Z,64.57
2018-04-14T07:16:21.550Z,64.51
2018-04-14T07:18:50.332Z,63.96
2018-04-14T07:21:18.732Z,63.70
2018-04-14T07:23:47.492Z,63.47
2018-04-14T07:26:18.373Z,63.26
2018-04-14T07:28:47.013Z,62.69
2018-04-14T07:31:16.776Z,62.55
2018-04-14T07:33:45.964Z,62.56
2018-04-14T07:36:14.359Z,62.29
2018-04-14T07:38:42.753Z,62.26
2018-04-14T07:41:12.141Z,62.08
2018-04-14T07:43:41.828Z,61.49
2018-04-14T07:46:10.199Z,61.06
2018-04-14T07:48:38.595Z,60.75
2018-04-14T07:51:07.699Z,60.14
2018-04-14T07:53:36.932Z,59.86
2018-04-14T07:56:05.345Z,59.76
2018-04-14T07:58:33.744Z,59.76
2018-04-14T08:01:02.375Z,59.06
2018-04-14T08:03:30.789Z,58.40
2018-04-14T08:05:59.652Z,58.44
2018-04-14T08:08:28.390Z,58.13
2018-04-14T08:10:56.767Z,57.94
2018-04-14T08:13:25.909Z,57.57
2018-04-14T08:15:54.311Z,57.04
2018-04-14T08:18:23.504Z,56.72
2018-04-14T08:20:51.929Z,56.77
2018-04-14T08:23:20.960Z,56.81
2018-04-14T08:25:49.736Z,56.17
2018-04-14T08:28:18.136Z,55.62
2018-04-14T08:30:46.753Z,55.33
2018-04-14T08:33:15.808Z,55.48
2018-04-14T08:35:44.235Z,55.77
2018-04-14T08:38:13.040Z,55.24
2018-04-14T08:40:41.483Z,55.13
2018-04-14T08:43:09.939Z,54.83
2018-04-14T08:45:38.307Z,54.86
2018-04-14T08:48:06.821Z,54.60
2018-04-14T08:50:35.440Z,54.56
2018-04-14T08:53:04.901Z,54.42
2018-04-14T08:55:33.280Z,53.85
2018-04-14T08:58:01.975Z,53.57
2018-04-14T09:00:30.333Z,53.54
2018-04-14T09:02:59.278Z,52.94
2018-04-14T09:05:27.938Z,52.79
2018-04-14T09:07:56.829Z,52.59
2018-04-14T09:10:26.571Z,52.40
2018-04-14T09:12:56.072Z,51.33
2018-04-14T09:15:25.405Z,51.16
2018-04-14T09:17:56.073Z,50.94
2018-04-14T09:20:24.685Z,50.27
2018-04-14T09:22:53.045Z,50.27
2018-04-14T09:25:22.175Z,49.73
2018-04-14T09:27:51.353Z,49.16
2018-04-14T09:30:19.761Z,48.54
2018-04-14T09:32:49.109Z,48.61
2018-04-14T09:35:17.598Z,48.26
2018-04-14T09:37:46.052Z,48.25
2018-04-14T09:40:14.420Z,48.01
2018-04-14T09:42:42.856Z,47.64
2018-04-14T09:45:11.204Z,47.51
2018-04-14T09:47:39.991Z,47.07
2018-04-14T09:50:08.354Z,46.35
2018-04-14T09:52:37.880Z,46.62
2018-04-14T09:55:06.523Z,45.87
2018-04-14T09:57:35.068Z,46.23
2018-04-14T10:00:03.812Z,46.23
2018-04-14T10:02:37.794Z,45.79
2018-04-14T10:05:06.294Z,45.44
2018-04-14T10:07:34.951Z,45.14
2018-04-14T10:10:03.583Z,44.74
2018-04-14T10:12:32.750Z,44.05
2018-04-14T10:15:01.143Z,43.91
2018-04-14T10:17:30.093Z,43.80
2018-04-14T10:19:58.821Z,43.66
2018-04-14T10:22:27.192Z,43.78
2018-04-14T10:24:56.617Z,43.23
2018-04-14T10:27:25.071Z,43.29
2018-04-14T10:29:53.607Z,43.20
2018-04-14T10:32:22.186Z,43.13
2018-04-14T11:58:25.308Z,39.20
2018-04-14T12:00:54.502Z,39.76
2018-04-14T12:03:25.239Z,39.55
2018-04-14T12:05:53.909Z,38.88
2018-04-14T12:08:22.366Z,38.89
2018-04-14T12:10:50.755Z,38.60
2018-04-14T12:13:20.393Z,38.04
2018-04-14T12:15:48.880Z,37.90
2018-04-14T12:18:18.411Z,37.23
2018-04-14T12:20:46.822Z,37.53
2018-04-14T12:23:15.571Z,37.11
2018-04-14T12:25:43.987Z,37.48
2018-04-14T12:28:12.651Z,37.29
2018-04-14T12:30:41.077Z,36.73
2018-04-14T12:33:09.850Z,36.23
2018-04-14T12:35:38.216Z,36.65
2018-04-14T12:38:06.687Z,36.63
2018-04-14T12:40:35.145Z,36.27
2018-04-14T12:43:03.536Z,36.14
2018-04-14T12:45:31.911Z,36.07
2018-04-14T12:48:00.336Z,36.20
2018-04-14T12:50:31.316Z,36.57
2018-04-14T12:53:00.891Z,36.90
2018-04-14T12:55:31.261Z,36.71
2018-04-14T12:57:59.994Z,37.31
2018-04-14T13:00:30.001Z,37.65
2018-04-14T13:02:58.450Z,37.36
2018-04-14T13:05:29.299Z,37.64
2018-04-14T13:07:57.682Z,38.38
2018-04-14T13:10:26.049Z,38.70
2018-04-14T13:12:55.598Z,38.43
2018-04-14T13:15:24.004Z,38.11
2018-04-14T13:17:52.564Z,37.95
2018-04-14T13:20:21.118Z,37.74
2018-04-14T13:22:52.393Z,38.25
2018-04-14T13:25:21.970Z,38.09
2018-04-14T13:27:50.333Z,38.40
2018-04-14T13:30:19.033Z,38.12
2018-04-14T13:32:47.869Z,37.84
2018-04-14T13:35:17.887Z,37.94
2018-04-14T13:37:46.899Z,38.19
2018-04-14T13:40:16.568Z,37.99
2018-04-14T13:42:45.201Z,38.81
2018-04-14T13:45:14.048Z,39.42
2018-04-14T13:47:42.403Z,39.63
2018-04-14T13:50:11.199Z,39.42
2018-04-14T13:52:40.082Z,39.00
2018-04-14T13:55:09.504Z,38.36
2018-04-14T13:57:38.950Z,38.51
2018-04-14T14:00:08.003Z,38.94
2018-04-14T14:02:37.207Z,38.56
2018-04-14T14:05:05.938Z,38.76
2018-04-14T14:07:34.300Z,38.96
2018-04-14T14:10:03.136Z,39.67
2018-04-14T14:12:31.757Z,40.56
2018-04-14T14:15:00.130Z,41.24
2018-04-14T14:17:28.505Z,41.53
2018-04-14T14:19:56.864Z,41.94
2018-04-14T14:22:25.727Z,42.76
2018-04-14T14:24:54.811Z,43.15
2018-04-14T14:27:23.847Z,43.73
2018-04-14T14:29:53.012Z,44.42
2018-04-14T14:32:21.477Z,45.77
2018-04-14T14:34:52.882Z,46.11
2018-04-14T14:37:21.641Z,46.67
2018-04-14T14:39:50.297Z,47.92
2018-04-14T14:42:19.884Z,47.06
2018-04-14T14:44:48.264Z,46.68
2018-04-14T14:47:17.644Z,45.82
2018-04-14T14:49:46.608Z,44.32
2018-04-14T14:52:16.816Z,42.95
2018-04-14T14:54:45.726Z,42.06
2018-04-14T14:57:14.181Z,41.80
2018-04-14T14:59:42.821Z,41.51
2018-04-14T15:02:11.327Z,41.10
2018-04-14T15:04:39.771Z,40.88
2018-04-14T15:07:08.395Z,41.11
2018-04-14T15:09:37.444Z,41.62
2018-04-14T15:12:06.776Z,41.93
2018-04-14T15:14:35.161Z,42.41
2018-04-14T15:17:03.831Z,43.10
2018-04-14T15:19:33.004Z,42.56
2018-04-14T15:22:01.350Z,41.84
2018-04-14T15:24:30.444Z,41.17
2018-04-14T15:26:58.871Z,40.26
2018-04-14T15:29:27.875Z,39.59
2018-04-14T15:31:57.137Z,39.63
2018-04-14T15:34:25.635Z,39.21
2018-04-14T15:36:54.240Z,39.50
2018-04-14T15:39:22.989Z,40.37
2018-04-14T15:41:52.128Z,41.13
2018-04-14T15:44:20.881Z,41.68
2018-04-14T15:46:49.231Z,42.37
2018-04-14T15:49:18.394Z,42.95
2018-04-14T15:51:47.426Z,43.39
2018-04-14T15:54:15.788Z,43.41
2018-04-14T15:56:44.218Z,42.90
2018-04-14T15:59:13.027Z,43.08
2018-04-14T16:01:42.435Z,43.59
2018-04-14T16:04:10.804Z,43.81
2018-04-14T16:06:39.258Z,43.42
2018-04-14T16:09:09.808Z,43.07
2018-04-14T16:11:38.166Z,42.84
2018-04-14T16:14:06.878Z,42.94
2018-04-14T16:16:36.896Z,43.21
2018-04-14T16:19:05.426Z,43.38
2018-04-14T16:21:34.218Z,43.43
2018-04-14T16:24:02.909Z,43.66
2018-04-14T16:26:31.672Z,43.82
2018-04-14T16:29:00.068Z,43.95
2018-04-14T16:31:28.442Z,44.00
2018-04-14T16:33:57.071Z,44.11
2018-04-14T16:36:25.550Z,44.34
2018-04-14T16:38:55.053Z,44.29
2018-04-14T16:41:23.804Z,44.30
2018-04-14T16:43:53.540Z,44.45
2018-04-14T16:46:24.472Z,44.53
2018-04-14T16:48:53.422Z,44.55
2018-04-14T16:51:22.447Z,44.61
2018-04-14T16:53:51.823Z,44.78
2018-04-14T16:56:20.982Z,44.85
2018-04-14T16:58:49.368Z,44.94
2018-04-14T17:01:21.542Z,45.08
2018-04-14T17:03:50.171Z,45.18
2018-04-14T17:06:19.675Z,45.30
2018-04-14T17:08:48.360Z,45.39
2018-04-14T17:11:16.986Z,45.51
2018-04-14T17:13:46.736Z,45.67
2018-04-14T17:16:16.121Z,45.80
2018-04-14T17:18:44.635Z,45.97
2018-04-14T17:21:13.151Z,46.15
2018-04-14T17:23:41.599Z,46.24
2018-04-14T17:26:10.899Z,46.32
2018-04-14T17:28:40.004Z,46.45
2018-04-14T17:31:08.492Z,46.59
2018-04-14T17:33:37.321Z,46.63
2018-04-14T17:36:05.934Z,46.76
2018-04-14T17:38:34.294Z,46.87
2018-04-14T17:41:03.067Z,46.94
2018-04-14T17:43:32.082Z,46.93
2018-04-14T17:46:00.594Z,47.05
2018-04-14T17:48:29.031Z,47.11
2018-04-14T17:50:57.613Z,47.18
2018-04-14T17:53:25.971Z,47.42
2018-04-14T17:55:54.691Z,47.38
2018-04-14T17:58:23.875Z,47.53
2018-04-14T18:00:52.304Z,47.61
2018-04-14T18:03:20.676Z,47.73
2018-04-14T18:05:49.040Z,47.81
2018-04-14T18:08:17.755Z,47.92
2018-04-14T18:10:46.234Z,48.01
2018-04-14T18:13:14.625Z,48.18
2018-04-14T18:15:43.722Z,48.21
2018-04-14T18:18:12.480Z,48.27
2018-04-14T18:20:40.913Z,48.32
2018-04-14T18:23:09.720Z,48.44
2018-04-14T18:25:38.195Z,48.56
2018-04-14T18:28:06.839Z,48.68
2018-04-14T18:30:36.644Z,48.84
2018-04-14T18:33:05.592Z,49.03
2018-04-14T18:35:34.646Z,49.19
2018-04-14T18:38:04.328Z,49.23
2018-04-14T18:40:33.452Z,49.32
2018-04-14T18:43:02.539Z,49.45
2018-04-14T18:45:31.778Z,49.58
2018-04-14T18:48:03.318Z,49.66
2018-04-14T18:50:33.064Z,49.79
2018-04-14T18:53:02.085Z,49.88
2018-04-14T18:55:31.480Z,49.99
2018-04-14T18:58:00.160Z,50.00
2018-04-14T19:00:29.275Z,50.03
2018-04-14T19:02:59.714Z,50.15
2018-04-14T19:05:29.072Z,50.23
2018-04-14T19:07:57.812Z,50.34
2018-04-14T19:10:26.699Z,50.43
2018-04-14T19:12:55.375Z,50.57
2018-04-14T19:15:24.597Z,50.71
2018-04-14T19:17:53.206Z,50.84
2018-04-14T19:20:22.351Z,50.91
2018-04-14T19:22:51.298Z,51.07
2018-04-14T19:25:20.445Z,51.13
2018-04-14T19:27:49.645Z,51.30
2018-04-14T19:30:18.434Z,51.43
2018-04-14T19:32:47.003Z,51.63
2018-04-14T19:35:15.643Z,51.74
2018-04-14T19:37:44.404Z,51.93
2018-04-14T19:40:12.781Z,52.10
2018-04-14T19:42:41.253Z,52.32
2018-04-14T19:45:09.962Z,52.54
2018-04-14T19:47:39.492Z,52.70
2018-04-14T19:50:08.725Z,52.79
2018-04-14T19:52:37.132Z,52.80
2018-04-14T19:55:05.823Z,52.84
2018-04-14T19:57:34.514Z,52.98
2018-04-14T20:00:02.961Z,53.09
2018-04-14T20:02:31.457Z,53.20
2018-04-14T20:05:00.308Z,53.35
2018-04-14T20:07:29.019Z,53.71
2018-04-14T20:09:57.957Z,54.02
2018-04-14T20:12:26.955Z,54.65
2018-04-14T20:14:55.681Z,55.17
2018-04-14T20:17:24.133Z,55.56
2018-04-14T20:19:53.713Z,55.93
2018-04-14T20:22:22.553Z,56.76
2018-04-14T20:24:51.236Z,56.99
2018-04-14T20:27:20.002Z,57.67
2018-04-14T20:29:49.101Z,57.77
2018-04-14T20:32:17.710Z,57.94
2018-04-14T20:34:46.675Z,58.34
2018-04-14T20:37:15.276Z,58.71
2018-04-14T20:39:45.898Z,59.04
2018-04-14T20:42:15.824Z,59.13
2018-04-14T20:44:46.101Z,59.25
2018-04-14T20:47:15.959Z,59.48
2018-04-14T20:49:44.511Z,59.83
2018-04-14T20:52:13.286Z,60.04
2018-04-14T20:54:44.475Z,60.37
2018-04-14T20:57:15.309Z,60.78
2018-04-14T20:59:44.765Z,61.64
2018-04-14T21:02:13.429Z,61.60
2018-04-14T21:04:43.069Z,61.89
2018-04-14T21:07:12.252Z,62.04
2018-04-14T21:09:41.115Z,62.29
2018-04-14T21:12:09.862Z,62.25
2018-04-14T21:14:39.561Z,62.18
2018-04-14T21:17:09.687Z,62.23
2018-04-14T21:19:39.535Z,62.39
2018-04-14T21:22:08.063Z,62.61
2018-04-14T21:24:36.752Z,62.58
2018-04-14T21:27:06.158Z,62.63
2018-04-14T21:29:34.901Z,63.00
2018-04-14T21:32:03.479Z,62.98
2018-04-14T21:34:34.239Z,63.35
2018-04-14T21:37:03.984Z,63.29
2018-04-14T21:39:33.106Z,63.43
2018-04-14T21:42:01.894Z,63.59
2018-04-14T21:44:31.498Z,63.47
2018-04-14T21:47:01.282Z,63.51
2018-04-14T21:49:30.887Z,63.60
2018-04-14T21:52:02.206Z,63.71
2018-04-14T21:54:30.863Z,63.84
2018-04-14T21:57:00.307Z,64.02
2018-04-14T21:59:29.808Z,64.21
2018-04-14T22:01:58.764Z,64.30
2018-04-14T22:04:27.567Z,64.35
2018-04-14T22:06:56.580Z,64.68
2018-04-14T22:09:27.089Z,64.44
2018-04-14T22:11:59.130Z,64.63
2018-04-14T22:14:38.908Z,64.73
2018-04-14T22:17:07.405Z,64.95
2018-04-14T22:19:37.793Z,65.05
2018-04-14T22:22:06.780Z,65.10
2018-04-14T22:24:36.480Z,65.35
2018-04-14T22:27:05.743Z,65.54
2018-04-14T22:29:34.154Z,65.54
2018-04-14T22:32:03.460Z,65.80
2018-04-14T22:34:32.759Z,66.08
2018-04-14T22:37:01.766Z,66.18
2018-04-14T22:39:30.939Z,66.12
2018-04-14T22:41:59.395Z,66.08
2018-04-14T22:44:27.794Z,66.27
2018-04-14T22:46:56.615Z,66.55
2018-04-14T22:49:25.030Z,66.55
2018-04-14T22:51:53.455Z,66.77
2018-04-14T22:54:22.373Z,66.90
2018-04-14T22:56:51.685Z,66.69
2018-04-14T22:59:20.082Z,66.73
2018-04-14T23:01:48.483Z,66.91
2018-04-14T23:04:16.912Z,67.02
2018-04-14T23:06:45.373Z,67.17
2018-04-14T23:09:14.124Z,67.19
2018-04-14T23:11:43.249Z,67.35
2018-04-14T23:14:14.974Z,67.75
2018-04-14T23:16:43.865Z,67.89
2018-04-14T23:19:12.227Z,68.19
2018-04-14T23:21:40.673Z,68.20
2018-04-14T23:24:10.291Z,68.34
2018-04-14T23:26:39.340Z,68.41
2018-04-14T23:29:08.014Z,68.55
2018-04-14T23:31:36.816Z,68.63
2018-04-14T23:34:05.181Z,68.70
2018-04-14T23:36:34.232Z,68.85
2018-04-14T23:39:02.604Z,69.00
2018-04-14T23:41:30.972Z,69.15
2018-04-14T23:43:59.335Z,69.52
2018-04-14T23:46:27.698Z,69.78
2018-04-14T23:48:57.441Z,70.04
2018-04-14T23:51:25.884Z,70.12
2018-04-14T23:53:54.509Z,70.46
2018-04-14T23:56:23.793Z,70.43
2018-04-14T23:58:52.895Z,70.56
